sensor_id;sensor_type;location;lat;lon;timestamp;P1;durP1;ratioP1;P2;durP2;ratioP2
24901;SDS011;31328;51.402;0.016;2023-02-13T00:02:19;46.43;;;23.37;;
24901;SDS011;31328;51.402;0.016;2023-02-13T00:04:45;45.27;;;23.57;;
24901;SDS011;31328;51.402;0.016;2023-02-13T00:07:11;49.77;;;23.83;;
24901;SDS011;31328;51.402;0.016;2023-02-13T00:09:38;43.93;;;23.50;;
24901;SDS011;31328;51.402;0.016;2023-02-13T00:12:05;45.73;;;21.87;;
24901;SDS011;31328;51.402;0.016;2023-02-13T00:14:36;49.03;;;25.27;;
24901;SDS011;31328;51.402;0.016;2023-02-13T00:17:04;47.60;;;24.40;;
24901;SDS011;31328;51.402;0.016;2023-02-13T00:19:31;40.73;;;22.27;;
24901;SDS011;31328;51.402;0.016;2023-02-13T00:21:58;47.97;;;23.83;;
24901;SDS011;31328;51.402;0.016;2023-02-13T00:24:24;43.13;;;21.67;;
24901;SDS011;31328;51.402;0.016;2023-02-13T00:26:51;38.80;;;21.27;;
24901;SDS011;31328;51.402;0.016;2023-02-13T00:29:17;41.57;;;21.77;;
24901;SDS011;31328;51.402;0.016;2023-02-13T00:31:44;42.07;;;21.87;;
24901;SDS011;31328;51.402;0.016;2023-02-13T00:34:10;43.63;;;21.50;;
24901;SDS011;31328;51.402;0.016;2023-02-13T00:36:37;39.07;;;21.77;;
24901;SDS011;31328;51.402;0.016;2023-02-13T00:39:03;39.33;;;19.93;;
24901;SDS011;31328;51.402;0.016;2023-02-13T00:41:29;42.70;;;22.07;;
24901;SDS011;31328;51.402;0.016;2023-02-13T00:43:55;39.20;;;20.67;;
24901;SDS011;31328;51.402;0.016;2023-02-13T00:46:22;37.37;;;20.10;;
24901;SDS011;31328;51.402;0.016;2023-02-13T00:48:48;44.27;;;22.50;;
24901;SDS011;31328;51.402;0.016;2023-02-13T00:51:14;36.87;;;19.60;;
24901;SDS011;31328;51.402;0.016;2023-02-13T00:53:41;40.73;;;21.07;;
24901;SDS011;31328;51.402;0.016;2023-02-13T00:56:07;40.33;;;20.73;;
24901;SDS011;31328;51.402;0.016;2023-02-13T00:58:36;40.00;;;19.17;;
24901;SDS011;31328;51.402;0.016;2023-02-13T01:01:03;43.23;;;23.37;;
24901;SDS011;31328;51.402;0.016;2023-02-13T01:03:30;39.97;;;19.63;;
24901;SDS011;31328;51.402;0.016;2023-02-13T01:05:57;33.70;;;18.47;;
24901;SDS011;31328;51.402;0.016;2023-02-13T01:08:24;35.23;;;19.73;;
24901;SDS011;31328;51.402;0.016;2023-02-13T01:10:53;34.93;;;18.80;;
24901;SDS011;31328;51.402;0.016;2023-02-13T01:13:19;35.37;;;18.13;;
24901;SDS011;31328;51.402;0.016;2023-02-13T01:15:46;36.83;;;18.57;;
24901;SDS011;31328;51.402;0.016;2023-02-13T01:18:14;35.07;;;18.27;;
24901;SDS011;31328;51.402;0.016;2023-02-13T01:20:41;33.37;;;18.37;;
24901;SDS011;31328;51.402;0.016;2023-02-13T01:23:08;33.83;;;18.23;;
24901;SDS011;31328;51.402;0.016;2023-02-13T01:25:39;32.20;;;18.07;;
24901;SDS011;31328;51.402;0.016;2023-02-13T01:28:07;33.20;;;17.37;;
24901;SDS011;31328;51.402;0.016;2023-02-13T01:30:34;30.70;;;17.00;;
24901;SDS011;31328;51.402;0.016;2023-02-13T01:33:00;32.57;;;17.03;;
24901;SDS011;31328;51.402;0.016;2023-02-13T01:35:27;30.90;;;16.93;;
24901;SDS011;31328;51.402;0.016;2023-02-13T01:37:53;30.03;;;16.77;;
24901;SDS011;31328;51.402;0.016;2023-02-13T01:40:19;31.27;;;16.73;;
24901;SDS011;31328;51.402;0.016;2023-02-13T01:42:46;34.10;;;16.23;;
24901;SDS011;31328;51.402;0.016;2023-02-13T01:45:21;29.17;;;15.50;;
24901;SDS011;31328;51.402;0.016;2023-02-13T01:47:49;32.77;;;16.83;;
24901;SDS011;31328;51.402;0.016;2023-02-13T01:50:33;29.47;;;15.93;;
24901;SDS011;31328;51.402;0.016;2023-02-13T01:55:57;31.50;;;16.60;;
24901;SDS011;31328;51.402;0.016;2023-02-13T01:58:29;29.70;;;16.88;;
24901;SDS011;31328;51.402;0.016;2023-02-13T02:00:58;26.63;;;15.30;;
24901;SDS011;31328;51.402;0.016;2023-02-13T02:03:32;30.17;;;17.10;;
24901;SDS011;31328;51.402;0.016;2023-02-13T02:06:06;30.60;;;16.43;;
24901;SDS011;31328;51.402;0.016;2023-02-13T02:08:36;30.40;;;15.90;;
24901;SDS011;31328;51.402;0.016;2023-02-13T02:11:16;28.67;;;15.47;;
24901;SDS011;31328;51.402;0.016;2023-02-13T02:14:00;28.60;;;14.97;;
24901;SDS011;31328;51.402;0.016;2023-02-13T02:16:33;28.13;;;15.10;;
24901;SDS011;31328;51.402;0.016;2023-02-13T02:19:03;29.13;;;14.87;;
24901;SDS011;31328;51.402;0.016;2023-02-13T02:30:27;27.80;;;15.70;;
24901;SDS011;31328;51.402;0.016;2023-02-13T02:47:23;32.57;;;16.33;;
24901;SDS011;31328;51.402;0.016;2023-02-13T02:50:33;29.35;;;15.02;;
24901;SDS011;31328;51.402;0.016;2023-02-13T02:55:41;27.57;;;16.07;;
24901;SDS011;31328;51.402;0.016;2023-02-13T03:01:00;28.97;;;15.30;;
24901;SDS011;31328;51.402;0.016;2023-02-13T03:03:49;29.13;;;16.67;;
24901;SDS011;31328;51.402;0.016;2023-02-13T03:06:55;31.20;;;16.17;;
24901;SDS011;31328;51.402;0.016;2023-02-13T03:09:29;28.03;;;15.63;;
24901;SDS011;31328;51.402;0.016;2023-02-13T03:12:19;31.27;;;15.80;;
24901;SDS011;31328;51.402;0.016;2023-02-13T03:15:06;31.23;;;16.57;;
24901;SDS011;31328;51.402;0.016;2023-02-13T03:17:34;33.50;;;15.70;;
24901;SDS011;31328;51.402;0.016;2023-02-13T03:23:37;32.97;;;16.03;;
24901;SDS011;31328;51.402;0.016;2023-02-13T03:34:20;31.33;;;15.93;;
24901;SDS011;31328;51.402;0.016;2023-02-13T03:37:12;32.13;;;16.23;;
24901;SDS011;31328;51.402;0.016;2023-02-13T03:40:07;30.30;;;14.53;;
24901;SDS011;31328;51.402;0.016;2023-02-13T03:42:41;27.53;;;15.73;;
24901;SDS011;31328;51.402;0.016;2023-02-13T03:45:14;32.90;;;16.83;;
24901;SDS011;31328;51.402;0.016;2023-02-13T03:48:06;32.87;;;16.70;;
24901;SDS011;31328;51.402;0.016;2023-02-13T03:50:54;30.93;;;16.13;;
24901;SDS011;31328;51.402;0.016;2023-02-13T03:53:24;31.53;;;16.30;;
24901;SDS011;31328;51.402;0.016;2023-02-13T03:55:54;30.87;;;16.07;;
24901;SDS011;31328;51.402;0.016;2023-02-13T03:58:43;32.90;;;16.40;;
24901;SDS011;31328;51.402;0.016;2023-02-13T04:01:33;30.13;;;16.57;;
24901;SDS011;31328;51.402;0.016;2023-02-13T04:09:29;34.27;;;15.90;;
24901;SDS011;31328;51.402;0.016;2023-02-13T04:15:02;31.73;;;16.37;;
24901;SDS011;31328;51.402;0.016;2023-02-13T04:17:35;31.40;;;16.37;;
24901;SDS011;31328;51.402;0.016;2023-02-13T04:20:06;35.13;;;17.37;;
24901;SDS011;31328;51.402;0.016;2023-02-13T04:22:33;32.83;;;16.10;;
24901;SDS011;31328;51.402;0.016;2023-02-13T04:25:00;30.53;;;16.47;;
24901;SDS011;31328;51.402;0.016;2023-02-13T04:27:26;33.10;;;17.63;;
24901;SDS011;31328;51.402;0.016;2023-02-13T04:29:53;31.07;;;15.77;;
24901;SDS011;31328;51.402;0.016;2023-02-13T04:32:19;36.53;;;16.83;;
24901;SDS011;31328;51.402;0.016;2023-02-13T04:34:46;32.77;;;16.27;;
24901;SDS011;31328;51.402;0.016;2023-02-13T04:37:12;31.70;;;16.03;;
24901;SDS011;31328;51.402;0.016;2023-02-13T04:39:38;36.63;;;18.93;;
24901;SDS011;31328;51.402;0.016;2023-02-13T04:42:05;36.07;;;18.93;;
24901;SDS011;31328;51.402;0.016;2023-02-13T04:44:31;38.93;;;17.87;;
24901;SDS011;31328;51.402;0.016;2023-02-13T04:46:57;36.80;;;17.20;;
24901;SDS011;31328;51.402;0.016;2023-02-13T04:49:24;36.90;;;18.87;;
24901;SDS011;31328;51.402;0.016;2023-02-13T04:51:50;37.30;;;19.13;;
24901;SDS011;31328;51.402;0.016;2023-02-13T04:54:16;39.37;;;19.50;;
24901;SDS011;31328;51.402;0.016;2023-02-13T04:56:43;40.37;;;19.50;;
24901;SDS011;31328;51.402;0.016;2023-02-13T04:59:09;39.93;;;18.87;;
24901;SDS011;31328;51.402;0.016;2023-02-13T05:01:35;41.57;;;19.30;;
24901;SDS011;31328;51.402;0.016;2023-02-13T05:04:02;41.33;;;18.60;;
24901;SDS011;31328;51.402;0.016;2023-02-13T05:06:28;38.73;;;19.13;;
24901;SDS011;31328;51.402;0.016;2023-02-13T05:08:54;38.80;;;18.57;;
24901;SDS011;31328;51.402;0.016;2023-02-13T05:11:20;40.50;;;18.90;;
24901;SDS011;31328;51.402;0.016;2023-02-13T05:13:47;39.07;;;18.97;;
24901;SDS011;31328;51.402;0.016;2023-02-13T05:16:13;40.07;;;18.83;;
24901;SDS011;31328;51.402;0.016;2023-02-13T05:18:40;41.53;;;20.40;;
24901;SDS011;31328;51.402;0.016;2023-02-13T05:21:06;39.00;;;19.97;;
24901;SDS011;31328;51.402;0.016;2023-02-13T05:26:17;61.00;;;20.90;;
24901;SDS011;31328;51.402;0.016;2023-02-13T05:28:43;41.33;;;19.73;;
24901;SDS011;31328;51.402;0.016;2023-02-13T05:33:55;38.17;;;17.87;;
24901;SDS011;31328;51.402;0.016;2023-02-13T05:36:21;41.63;;;19.83;;
24901;SDS011;31328;51.402;0.016;2023-02-13T05:38:47;42.57;;;20.13;;
24901;SDS011;31328;51.402;0.016;2023-02-13T05:41:13;47.63;;;22.87;;
24901;SDS011;31328;51.402;0.016;2023-02-13T05:43:40;41.87;;;21.67;;
24901;SDS011;31328;51.402;0.016;2023-02-13T05:46:07;45.83;;;20.13;;
24901;SDS011;31328;51.402;0.016;2023-02-13T05:48:34;45.60;;;22.30;;
24901;SDS011;31328;51.402;0.016;2023-02-13T05:51:01;47.63;;;22.03;;
24901;SDS011;31328;51.402;0.016;2023-02-13T05:53:27;48.13;;;23.73;;
24901;SDS011;31328;51.402;0.016;2023-02-13T05:55:54;44.53;;;21.33;;
24901;SDS011;31328;51.402;0.016;2023-02-13T05:58:21;45.40;;;20.90;;
24901;SDS011;31328;51.402;0.016;2023-02-13T06:00:47;46.30;;;22.27;;
24901;SDS011;31328;51.402;0.016;2023-02-13T06:03:14;48.00;;;21.77;;
24901;SDS011;31328;51.402;0.016;2023-02-13T06:05:40;47.63;;;23.43;;
24901;SDS011;31328;51.402;0.016;2023-02-13T06:08:06;45.40;;;21.67;;
24901;SDS011;31328;51.402;0.016;2023-02-13T06:10:33;49.47;;;21.93;;
24901;SDS011;31328;51.402;0.016;2023-02-13T06:12:59;47.10;;;22.70;;
24901;SDS011;31328;51.402;0.016;2023-02-13T06:15:25;50.33;;;24.13;;
24901;SDS011;31328;51.402;0.016;2023-02-13T06:17:52;45.03;;;21.07;;
24901;SDS011;31328;51.402;0.016;2023-02-13T06:20:18;45.90;;;22.27;;
24901;SDS011;31328;51.402;0.016;2023-02-13T06:22:48;48.10;;;21.53;;
24901;SDS011;31328;51.402;0.016;2023-02-13T06:25:15;48.47;;;22.07;;
24901;SDS011;31328;51.402;0.016;2023-02-13T06:27:42;49.07;;;22.70;;
24901;SDS011;31328;51.402;0.016;2023-02-13T06:30:08;49.27;;;22.37;;
24901;SDS011;31328;51.402;0.016;2023-02-13T06:32:35;46.93;;;23.10;;
24901;SDS011;31328;51.402;0.016;2023-02-13T06:35:02;46.30;;;22.67;;
24901;SDS011;31328;51.402;0.016;2023-02-13T06:37:31;51.87;;;23.53;;
24901;SDS011;31328;51.402;0.016;2023-02-13T06:39:58;48.07;;;22.67;;
24901;SDS011;31328;51.402;0.016;2023-02-13T06:42:25;47.77;;;21.80;;
24901;SDS011;31328;51.402;0.016;2023-02-13T06:44:51;55.23;;;22.57;;
24901;SDS011;31328;51.402;0.016;2023-02-13T06:47:17;51.37;;;24.47;;
24901;SDS011;31328;51.402;0.016;2023-02-13T06:49:44;50.17;;;22.57;;
24901;SDS011;31328;51.402;0.016;2023-02-13T06:52:10;57.40;;;26.43;;
24901;SDS011;31328;51.402;0.016;2023-02-13T06:54:36;50.93;;;24.57;;
24901;SDS011;31328;51.402;0.016;2023-02-13T06:57:03;55.97;;;24.73;;
24901;SDS011;31328;51.402;0.016;2023-02-13T06:59:29;52.80;;;23.53;;
24901;SDS011;31328;51.402;0.016;2023-02-13T07:01:55;55.03;;;24.47;;
24901;SDS011;31328;51.402;0.016;2023-02-13T07:04:22;48.77;;;21.53;;
24901;SDS011;31328;51.402;0.016;2023-02-13T07:06:50;53.80;;;23.10;;
24901;SDS011;31328;51.402;0.016;2023-02-13T07:09:20;52.17;;;23.93;;
24901;SDS011;31328;51.402;0.016;2023-02-13T07:11:46;56.40;;;25.23;;
24901;SDS011;31328;51.402;0.016;2023-02-13T07:14:12;56.43;;;24.50;;
24901;SDS011;31328;51.402;0.016;2023-02-13T07:16:39;56.07;;;26.40;;
24901;SDS011;31328;51.402;0.016;2023-02-13T07:19:05;51.10;;;23.07;;
24901;SDS011;31328;51.402;0.016;2023-02-13T07:21:31;57.20;;;25.03;;
24901;SDS011;31328;51.402;0.016;2023-02-13T07:23:58;57.37;;;26.00;;
24901;SDS011;31328;51.402;0.016;2023-02-13T07:26:25;55.77;;;26.73;;
24901;SDS011;31328;51.402;0.016;2023-02-13T07:28:51;56.37;;;26.53;;
24901;SDS011;31328;51.402;0.016;2023-02-13T07:31:18;54.57;;;24.77;;
24901;SDS011;31328;51.402;0.016;2023-02-13T07:33:46;56.03;;;25.33;;
24901;SDS011;31328;51.402;0.016;2023-02-13T07:36:14;56.70;;;23.20;;
24901;SDS011;31328;51.402;0.016;2023-02-13T07:38:40;54.43;;;23.60;;
24901;SDS011;31328;51.402;0.016;2023-02-13T07:41:06;57.10;;;24.03;;
24901;SDS011;31328;51.402;0.016;2023-02-13T07:43:33;51.50;;;24.77;;
24901;SDS011;31328;51.402;0.016;2023-02-13T07:46:00;53.50;;;24.80;;
24901;SDS011;31328;51.402;0.016;2023-02-13T07:48:28;56.87;;;25.00;;
24901;SDS011;31328;51.402;0.016;2023-02-13T07:50:58;60.63;;;24.33;;
24901;SDS011;31328;51.402;0.016;2023-02-13T07:53:25;59.70;;;27.27;;
24901;SDS011;31328;51.402;0.016;2023-02-13T07:55:51;57.30;;;24.87;;
24901;SDS011;31328;51.402;0.016;2023-02-13T07:58:17;60.30;;;26.27;;
24901;SDS011;31328;51.402;0.016;2023-02-13T08:00:44;55.87;;;24.87;;
24901;SDS011;31328;51.402;0.016;2023-02-13T08:03:10;58.50;;;25.77;;
24901;SDS011;31328;51.402;0.016;2023-02-13T08:05:37;58.77;;;25.73;;
24901;SDS011;31328;51.402;0.016;2023-02-13T08:08:04;54.33;;;25.17;;
24901;SDS011;31328;51.402;0.016;2023-02-13T08:10:30;59.37;;;24.93;;
24901;SDS011;31328;51.402;0.016;2023-02-13T08:13:15;53.40;;;23.63;;
24901;SDS011;31328;51.402;0.016;2023-02-13T08:15:42;53.43;;;24.27;;
24901;SDS011;31328;51.402;0.016;2023-02-13T08:18:11;62.33;;;25.17;;
24901;SDS011;31328;51.402;0.016;2023-02-13T08:20:38;48.17;;;22.50;;
24901;SDS011;31328;51.402;0.016;2023-02-13T08:23:05;53.03;;;23.83;;
24901;SDS011;31328;51.402;0.016;2023-02-13T08:25:32;55.93;;;23.20;;
24901;SDS011;31328;51.402;0.016;2023-02-13T08:27:59;51.77;;;23.23;;
24901;SDS011;31328;51.402;0.016;2023-02-13T08:30:26;55.23;;;24.03;;
24901;SDS011;31328;51.402;0.016;2023-02-13T08:32:53;56.50;;;24.67;;
24901;SDS011;31328;51.402;0.016;2023-02-13T08:35:20;50.20;;;23.40;;
24901;SDS011;31328;51.402;0.016;2023-02-13T08:37:47;48.23;;;22.10;;
24901;SDS011;31328;51.402;0.016;2023-02-13T08:40:14;48.43;;;21.43;;
24901;SDS011;31328;51.402;0.016;2023-02-13T08:42:40;48.10;;;21.13;;
24901;SDS011;31328;51.402;0.016;2023-02-13T08:45:06;51.67;;;22.37;;
24901;SDS011;31328;51.402;0.016;2023-02-13T08:47:35;49.43;;;21.77;;
24901;SDS011;31328;51.402;0.016;2023-02-13T08:50:01;49.50;;;22.03;;
24901;SDS011;31328;51.402;0.016;2023-02-13T08:52:28;44.83;;;21.17;;
24901;SDS011;31328;51.402;0.016;2023-02-13T08:54:55;45.80;;;20.13;;
24901;SDS011;31328;51.402;0.016;2023-02-13T08:57:21;45.67;;;20.50;;
24901;SDS011;31328;51.402;0.016;2023-02-13T08:59:47;41.23;;;18.90;;
24901;SDS011;31328;51.402;0.016;2023-02-13T09:02:13;44.23;;;20.43;;
24901;SDS011;31328;51.402;0.016;2023-02-13T09:04:40;41.40;;;18.50;;
24901;SDS011;31328;51.402;0.016;2023-02-13T09:07:06;41.43;;;18.80;;
24901;SDS011;31328;51.402;0.016;2023-02-13T09:09:32;40.83;;;18.13;;
24901;SDS011;31328;51.402;0.016;2023-02-13T09:11:59;40.63;;;18.20;;
24901;SDS011;31328;51.402;0.016;2023-02-13T09:14:25;37.87;;;18.00;;
24901;SDS011;31328;51.402;0.016;2023-02-13T09:16:52;39.23;;;17.97;;
24901;SDS011;31328;51.402;0.016;2023-02-13T09:19:18;44.80;;;20.13;;
24901;SDS011;31328;51.402;0.016;2023-02-13T09:21:44;36.07;;;18.47;;
24901;SDS011;31328;51.402;0.016;2023-02-13T09:24:10;36.67;;;17.57;;
24901;SDS011;31328;51.402;0.016;2023-02-13T09:26:37;41.57;;;19.30;;
24901;SDS011;31328;51.402;0.016;2023-02-13T09:29:03;35.93;;;18.90;;
24901;SDS011;31328;51.402;0.016;2023-02-13T09:31:29;38.87;;;18.27;;
24901;SDS011;31328;51.402;0.016;2023-02-13T09:33:56;39.57;;;19.97;;
24901;SDS011;31328;51.402;0.016;2023-02-13T09:36:22;39.80;;;19.10;;
24901;SDS011;31328;51.402;0.016;2023-02-13T09:38:53;38.50;;;18.40;;
24901;SDS011;31328;51.402;0.016;2023-02-13T09:43:55;40.27;;;18.40;;
24901;SDS011;31328;51.402;0.016;2023-02-13T09:46:38;37.33;;;18.47;;
24901;SDS011;31328;51.402;0.016;2023-02-13T09:49:10;37.90;;;17.60;;
24901;SDS011;31328;51.402;0.016;2023-02-13T09:51:41;31.70;;;16.93;;
24901;SDS011;31328;51.402;0.016;2023-02-13T09:54:12;36.37;;;18.10;;
24901;SDS011;31328;51.402;0.016;2023-02-13T09:56:57;34.00;;;17.07;;
24901;SDS011;31328;51.402;0.016;2023-02-13T09:59:49;30.93;;;15.37;;
24901;SDS011;31328;51.402;0.016;2023-02-13T10:03:10;31.93;;;14.83;;
24901;SDS011;31328;51.402;0.016;2023-02-13T10:08:24;31.73;;;14.93;;
24901;SDS011;31328;51.402;0.016;2023-02-13T10:11:03;28.73;;;14.07;;
24901;SDS011;31328;51.402;0.016;2023-02-13T10:19:27;27.33;;;13.85;;
24901;SDS011;31328;51.402;0.016;2023-02-13T10:22:11;24.77;;;13.80;;
24901;SDS011;31328;51.402;0.016;2023-02-13T10:24:53;25.43;;;13.17;;
24901;SDS011;31328;51.402;0.016;2023-02-13T10:27:35;27.33;;;13.33;;
24901;SDS011;31328;51.402;0.016;2023-02-13T10:30:07;26.40;;;14.13;;
24901;SDS011;31328;51.402;0.016;2023-02-13T10:36:33;26.20;;;13.70;;
24901;SDS011;31328;51.402;0.016;2023-02-13T10:38:40;28.23;;;13.77;;
24901;SDS011;31328;51.402;0.016;2023-02-13T10:41:22;28.58;;;13.82;;
24901;SDS011;31328;51.402;0.016;2023-02-13T10:51:50;24.90;;;13.47;;
24901;SDS011;31328;51.402;0.016;2023-02-13T10:57:24;25.97;;;13.87;;
24901;SDS011;31328;51.402;0.016;2023-02-13T11:00:07;24.30;;;12.17;;
24901;SDS011;31328;51.402;0.016;2023-02-13T11:02:51;24.07;;;13.90;;
24901;SDS011;31328;51.402;0.016;2023-02-13T11:07:49;23.20;;;12.93;;
24901;SDS011;31328;51.402;0.016;2023-02-13T11:10:19;23.27;;;12.47;;
24901;SDS011;31328;51.402;0.016;2023-02-13T11:12:47;22.43;;;12.57;;
24901;SDS011;31328;51.402;0.016;2023-02-13T11:17:48;23.65;;;12.00;;
24901;SDS011;31328;51.402;0.016;2023-02-13T11:26:01;20.47;;;11.07;;
24901;SDS011;31328;51.402;0.016;2023-02-13T11:28:35;19.23;;;11.30;;
24901;SDS011;31328;51.402;0.016;2023-02-13T11:31:21;18.73;;;11.10;;
24901;SDS011;31328;51.402;0.016;2023-02-13T11:33:54;19.13;;;10.83;;
24901;SDS011;31328;51.402;0.016;2023-02-13T11:36:26;17.07;;;10.73;;
24901;SDS011;31328;51.402;0.016;2023-02-13T11:39:02;19.43;;;11.43;;
24901;SDS011;31328;51.402;0.016;2023-02-13T11:41:35;24.10;;;12.00;;
24901;SDS011;31328;51.402;0.016;2023-02-13T11:44:05;17.60;;;10.40;;
24901;SDS011;31328;51.402;0.016;2023-02-13T11:46:50;19.67;;;12.33;;
24901;SDS011;31328;51.402;0.016;2023-02-13T11:49:22;18.83;;;10.80;;
24901;SDS011;31328;51.402;0.016;2023-02-13T11:51:51;21.10;;;11.70;;
24901;SDS011;31328;51.402;0.016;2023-02-13T11:54:26;18.97;;;11.60;;
24901;SDS011;31328;51.402;0.016;2023-02-13T11:57:18;20.63;;;11.13;;
24901;SDS011;31328;51.402;0.016;2023-02-13T11:59:55;19.70;;;11.52;;
24901;SDS011;31328;51.402;0.016;2023-02-13T12:07:40;18.05;;;11.45;;
24901;SDS011;31328;51.402;0.016;2023-02-13T12:10:10;21.53;;;12.17;;
24901;SDS011;31328;51.402;0.016;2023-02-13T12:15:20;20.07;;;11.87;;
24901;SDS011;31328;51.402;0.016;2023-02-13T12:18:15;20.85;;;11.85;;
24901;SDS011;31328;51.402;0.016;2023-02-13T12:23:32;21.97;;;13.70;;
24901;SDS011;31328;51.402;0.016;2023-02-13T12:39:39;22.20;;;12.23;;
24901;SDS011;31328;51.402;0.016;2023-02-13T12:48:08;19.67;;;12.70;;
24901;SDS011;31328;51.402;0.016;2023-02-13T13:07:18;21.40;;;12.27;;
24901;SDS011;31328;51.402;0.016;2023-02-13T13:21:23;18.70;;;12.27;;
24901;SDS011;31328;51.402;0.016;2023-02-13T13:26:46;20.27;;;11.90;;
24901;SDS011;31328;51.402;0.016;2023-02-13T13:29:26;20.37;;;13.33;;
24901;SDS011;31328;51.402;0.016;2023-02-13T13:32:06;21.67;;;13.70;;
24901;SDS011;31328;51.402;0.016;2023-02-13T13:34:36;19.77;;;12.53;;
24901;SDS011;31328;51.402;0.016;2023-02-13T13:43:11;18.30;;;11.07;;
24901;SDS011;31328;51.402;0.016;2023-02-13T13:51:36;20.97;;;12.80;;
24901;SDS011;31328;51.402;0.016;2023-02-13T14:07:43;20.90;;;13.20;;
24901;SDS011;31328;51.402;0.016;2023-02-13T14:23:18;19.00;;;12.13;;
24901;SDS011;31328;51.402;0.016;2023-02-13T14:31:20;20.77;;;11.97;;
24901;SDS011;31328;51.402;0.016;2023-02-13T14:36:41;17.47;;;11.13;;
24901;SDS011;31328;51.402;0.016;2023-02-13T14:42:26;18.33;;;10.40;;
24901;SDS011;31328;51.402;0.016;2023-02-13T14:44:55;20.33;;;11.10;;
24901;SDS011;31328;51.402;0.016;2023-02-13T14:52:53;18.33;;;11.77;;
24901;SDS011;31328;51.402;0.016;2023-02-13T14:58:05;20.00;;;11.83;;
24901;SDS011;31328;51.402;0.016;2023-02-13T15:00:45;19.13;;;12.63;;
24901;SDS011;31328;51.402;0.016;2023-02-13T15:06:09;20.80;;;13.07;;
24901;SDS011;31328;51.402;0.016;2023-02-13T15:08:51;23.23;;;14.23;;
24901;SDS011;31328;51.402;0.016;2023-02-13T15:16:48;26.27;;;15.20;;
24901;SDS011;31328;51.402;0.016;2023-02-13T15:19:18;25.07;;;13.50;;
24901;SDS011;31328;51.402;0.016;2023-02-13T15:21:47;27.77;;;14.93;;
24901;SDS011;31328;51.402;0.016;2023-02-13T15:24:17;21.73;;;14.10;;
24901;SDS011;31328;51.402;0.016;2023-02-13T15:27:01;24.93;;;15.27;;
24901;SDS011;31328;51.402;0.016;2023-02-13T15:29:29;22.27;;;14.00;;
24901;SDS011;31328;51.402;0.016;2023-02-13T15:31:57;23.93;;;13.50;;
24901;SDS011;31328;51.402;0.016;2023-02-13T15:34:28;23.47;;;15.10;;
24901;SDS011;31328;51.402;0.016;2023-02-13T15:36:59;22.73;;;14.33;;
24901;SDS011;31328;51.402;0.016;2023-02-13T15:39:27;26.83;;;15.20;;
24901;SDS011;31328;51.402;0.016;2023-02-13T15:41:56;23.73;;;14.10;;
24901;SDS011;31328;51.402;0.016;2023-02-13T15:44:28;22.83;;;13.83;;
24901;SDS011;31328;51.402;0.016;2023-02-13T15:47:06;24.43;;;15.60;;
24901;SDS011;31328;51.402;0.016;2023-02-13T15:49:44;21.43;;;14.20;;
24901;SDS011;31328;51.402;0.016;2023-02-13T15:54:51;23.70;;;14.33;;
24901;SDS011;31328;51.402;0.016;2023-02-13T15:57:19;24.70;;;14.90;;
24901;SDS011;31328;51.402;0.016;2023-02-13T15:59:46;21.83;;;13.07;;
24901;SDS011;31328;51.402;0.016;2023-02-13T16:02:20;23.00;;;14.73;;
24901;SDS011;31328;51.402;0.016;2023-02-13T16:04:53;22.37;;;13.43;;
24901;SDS011;31328;51.402;0.016;2023-02-13T16:07:20;20.43;;;12.20;;
24901;SDS011;31328;51.402;0.016;2023-02-13T16:09:47;20.30;;;12.27;;
24901;SDS011;31328;51.402;0.016;2023-02-13T16:15:03;22.00;;;13.33;;
24901;SDS011;31328;51.402;0.016;2023-02-13T16:17:31;19.27;;;12.90;;
24901;SDS011;31328;51.402;0.016;2023-02-13T16:27:43;20.47;;;13.40;;
24901;SDS011;31328;51.402;0.016;2023-02-13T16:33:32;26.23;;;14.60;;
24901;SDS011;31328;51.402;0.016;2023-02-13T16:35:57;25.37;;;15.87;;
24901;SDS011;31328;51.402;0.016;2023-02-13T16:38:35;27.83;;;15.90;;
24901;SDS011;31328;51.402;0.016;2023-02-13T16:43:54;26.60;;;14.93;;
24901;SDS011;31328;51.402;0.016;2023-02-13T16:46:41;26.73;;;16.43;;
24901;SDS011;31328;51.402;0.016;2023-02-13T16:49:24;31.33;;;17.60;;
24901;SDS011;31328;51.402;0.016;2023-02-13T16:51:57;26.97;;;16.50;;
24901;SDS011;31328;51.402;0.016;2023-02-13T16:54:46;24.13;;;15.33;;
24901;SDS011;31328;51.402;0.016;2023-02-13T16:57:28;27.23;;;16.37;;
24901;SDS011;31328;51.402;0.016;2023-02-13T17:00:16;27.90;;;16.30;;
24901;SDS011;31328;51.402;0.016;2023-02-13T17:02:46;27.57;;;16.80;;
24901;SDS011;31328;51.402;0.016;2023-02-13T17:05:15;31.50;;;16.83;;
24901;SDS011;31328;51.402;0.016;2023-02-13T17:07:47;27.10;;;15.43;;
24901;SDS011;31328;51.402;0.016;2023-02-13T17:12:55;29.17;;;16.40;;
24901;SDS011;31328;51.402;0.016;2023-02-13T17:15:24;29.13;;;16.80;;
24901;SDS011;31328;51.402;0.016;2023-02-13T17:17:52;25.20;;;15.77;;
24901;SDS011;31328;51.402;0.016;2023-02-13T17:20:23;30.23;;;17.87;;
24901;SDS011;31328;51.402;0.016;2023-02-13T17:22:52;29.17;;;17.07;;
24901;SDS011;31328;51.402;0.016;2023-02-13T17:25:24;27.50;;;17.73;;
24901;SDS011;31328;51.402;0.016;2023-02-13T17:27:59;29.80;;;17.33;;
24901;SDS011;31328;51.402;0.016;2023-02-13T17:30:28;30.90;;;15.97;;
24901;SDS011;31328;51.402;0.016;2023-02-13T17:32:57;28.37;;;16.73;;
24901;SDS011;31328;51.402;0.016;2023-02-13T17:35:24;37.43;;;19.60;;
24901;SDS011;31328;51.402;0.016;2023-02-13T17:37:50;34.60;;;17.87;;
24901;SDS011;31328;51.402;0.016;2023-02-13T17:40:18;29.80;;;17.47;;
24901;SDS011;31328;51.402;0.016;2023-02-13T17:42:46;29.20;;;16.90;;
24901;SDS011;31328;51.402;0.016;2023-02-13T17:45:17;33.00;;;18.47;;
24901;SDS011;31328;51.402;0.016;2023-02-13T17:47:46;31.93;;;17.70;;
24901;SDS011;31328;51.402;0.016;2023-02-13T17:50:13;32.33;;;19.20;;
24901;SDS011;31328;51.402;0.016;2023-02-13T17:52:41;28.50;;;16.50;;
24901;SDS011;31328;51.402;0.016;2023-02-13T17:55:16;27.80;;;16.87;;
24901;SDS011;31328;51.402;0.016;2023-02-13T17:57:47;32.13;;;18.73;;
24901;SDS011;31328;51.402;0.016;2023-02-13T18:00:14;33.30;;;18.33;;
24901;SDS011;31328;51.402;0.016;2023-02-13T18:02:41;37.70;;;19.83;;
24901;SDS011;31328;51.402;0.016;2023-02-13T18:05:08;33.80;;;19.50;;
24901;SDS011;31328;51.402;0.016;2023-02-13T18:07:35;32.63;;;19.03;;
24901;SDS011;31328;51.402;0.016;2023-02-13T18:10:01;40.00;;;20.77;;
24901;SDS011;31328;51.402;0.016;2023-02-13T18:12:27;36.83;;;20.33;;
24901;SDS011;31328;51.402;0.016;2023-02-13T18:14:54;40.37;;;21.57;;
24901;SDS011;31328;51.402;0.016;2023-02-13T18:17:20;37.80;;;19.43;;
24901;SDS011;31328;51.402;0.016;2023-02-13T18:19:47;36.77;;;18.60;;
24901;SDS011;31328;51.402;0.016;2023-02-13T18:22:15;35.77;;;18.97;;
24901;SDS011;31328;51.402;0.016;2023-02-13T18:24:41;40.20;;;18.60;;
24901;SDS011;31328;51.402;0.016;2023-02-13T18:27:08;35.47;;;20.00;;
24901;SDS011;31328;51.402;0.016;2023-02-13T18:29:38;35.07;;;18.97;;
24901;SDS011;31328;51.402;0.016;2023-02-13T18:32:05;37.57;;;19.70;;
24901;SDS011;31328;51.402;0.016;2023-02-13T18:34:34;36.93;;;19.53;;
24901;SDS011;31328;51.402;0.016;2023-02-13T18:37:01;35.50;;;18.10;;
24901;SDS011;31328;51.402;0.016;2023-02-13T18:39:27;33.53;;;18.93;;
24901;SDS011;31328;51.402;0.016;2023-02-13T18:41:53;36.20;;;19.33;;
24901;SDS011;31328;51.402;0.016;2023-02-13T18:44:20;36.53;;;19.33;;